createdAt,value
2023-04-01T00:01:00.253Z,9.67
2023-04-01T00:03:28.457Z,9.59
2023-04-01T00:06:01.886Z,9.57
2023-04-01T00:08:29.623Z,9.48
2023-04-01T00:10:58.037Z,9.37
2023-04-01T00:13:28.087Z,9.21
2023-04-01T00:15:56.567Z,9.04
2023-04-01T00:18:24.852Z,9.16
2023-04-01T00:20:52.839Z,8.97
2023-04-01T00:23:22.077Z,9.01
2023-04-01T00:25:52.026Z,9.04
2023-04-01T00:28:20.591Z,9.12
2023-04-01T00:30:48.161Z,9.04
2023-04-01T00:33:15.072Z,9.08
2023-04-01T00:35:42.995Z,9.01
2023-04-01T00:38:14.455Z,8.84
2023-04-01T00:40:48.441Z,8.98
2023-04-01T00:43:22.907Z,8.89
2023-04-01T00:45:50.619Z,9.00
2023-04-01T00:48:35.086Z,8.99
2023-04-01T00:51:08.457Z,9.05
2023-04-01T00:53:44.416Z,8.89
2023-04-01T00:56:16.706Z,8.74
2023-04-01T00:58:48.085Z,8.99
2023-04-01T01:01:14.940Z,8.95
2023-04-01T01:03:43.769Z,9.08
2023-04-01T01:06:47.013Z,8.82
2023-04-01T01:09:27.087Z,8.87
2023-04-01T01:12:08.657Z,9.13
2023-04-01T01:15:12.894Z,9.03
2023-04-01T01:18:17.839Z,9.08
2023-04-01T01:21:06.245Z,9.11
2023-04-01T01:23:54.352Z,9.24
2023-04-01T01:26:39.609Z,9.22
2023-04-01T01:29:15.143Z,9.37
2023-04-01T01:32:11.290Z,9.31
2023-04-01T01:35:15.575Z,9.22
2023-04-01T01:37:46.906Z,9.21
2023-04-01T01:40:15.227Z,9.27
2023-04-01T01:42:48.642Z,9.21
2023-04-01T01:45:22.450Z,9.03
2023-04-01T01:47:53.502Z,9.02
2023-04-01T01:50:21.682Z,8.86
2023-04-01T01:52:50.821Z,9.13
2023-04-01T01:55:29.905Z,9.16
2023-04-01T01:58:01.797Z,9.04
2023-04-01T02:00:29.119Z,9.16
2023-04-01T02:02:57.547Z,9.12
2023-04-01T02:05:26.828Z,9.22
2023-04-01T02:08:02.438Z,9.24
2023-04-01T02:10:36.725Z,9.26
2023-04-01T02:13:13.036Z,9.18
2023-04-01T02:15:44.197Z,9.37
2023-04-01T02:18:13.014Z,9.33
2023-04-01T02:20:40.136Z,9.30
2023-04-01T02:23:09.056Z,9.40
2023-04-01T02:25:40.945Z,9.45
2023-04-01T02:28:10.039Z,9.56
2023-04-01T02:30:39.586Z,9.47
2023-04-01T02:33:09.681Z,9.38
2023-04-01T02:35:39.193Z,9.46
2023-04-01T02:38:08.454Z,9.42
2023-04-01T02:41:03.816Z,9.30
2023-04-01T02:43:32.980Z,9.32
2023-04-01T02:45:59.482Z,9.42
2023-04-01T02:48:26.199Z,9.27
2023-04-01T02:50:55.264Z,9.39
2023-04-01T02:53:24.112Z,9.23
2023-04-01T02:55:56.926Z,9.39
2023-04-01T02:58:23.519Z,9.23
2023-04-01T03:00:50.113Z,9.25
2023-04-01T03:03:18.859Z,9.33
2023-04-01T03:05:45.632Z,9.36
2023-04-01T03:08:16.974Z,9.42
2023-04-01T03:10:43.543Z,9.32
2023-04-01T03:13:12.281Z,9.25
2023-04-01T03:15:38.862Z,9.20
2023-04-01T03:18:08.089Z,9.13
2023-04-01T03:20:34.640Z,9.01
2023-04-01T03:23:01.180Z,9.14
2023-04-01T03:25:29.613Z,9.05
2023-04-01T03:28:00.630Z,9.16
2023-04-01T03:30:32.171Z,9.12
2023-04-01T03:33:03.756Z,8.95
2023-04-01T03:35:32.770Z,9.03
2023-04-01T03:37:59.412Z,8.96
2023-04-01T03:40:27.557Z,9.04
2023-04-01T03:42:54.227Z,8.94
2023-04-01T03:45:21.148Z,8.94
2023-04-01T03:47:50.424Z,8.84
2023-04-01T03:50:17.125Z,8.73
2023-04-01T03:52:43.667Z,8.85
2023-04-01T03:55:10.254Z,8.84
2023-04-01T03:57:36.874Z,8.79
2023-04-01T04:00:04.216Z,8.61
2023-04-01T04:02:33.270Z,8.73
2023-04-01T04:04:59.833Z,8.74
2023-04-01T04:07:28.636Z,8.59
2023-04-01T04:09:55.316Z,8.58
2023-04-01T04:12:24.911Z,8.66
2023-04-01T04:14:54.003Z,8.38
2023-04-01T04:17:20.640Z,8.32
2023-04-01T04:19:49.471Z,8.38
2023-04-01T04:22:20.972Z,8.39
2023-04-01T04:24:47.480Z,8.36
2023-04-01T04:27:14.043Z,8.37
2023-04-01T04:29:40.760Z,8.16
2023-04-01T04:32:07.424Z,8.31
2023-04-01T04:34:36.937Z,8.26
2023-04-01T04:37:08.277Z,8.30
2023-04-01T04:39:37.176Z,8.34
2023-04-01T04:42:06.344Z,8.13
2023-04-01T04:44:35.253Z,8.16
2023-04-01T04:47:04.388Z,8.20
2023-04-01T04:49:33.348Z,8.08
2023-04-01T04:51:59.906Z,8.12
2023-04-01T04:54:31.661Z,8.20
2023-04-01T04:57:00.834Z,8.15
2023-04-01T04:59:29.716Z,8.18
2023-04-01T05:01:58.802Z,8.16
2023-04-01T05:04:27.695Z,8.10
2023-04-01T05:06:54.278Z,8.18
2023-04-01T05:09:23.206Z,8.19
2023-04-01T05:11:49.764Z,8.29
2023-04-01T05:14:18.681Z,8.27
2023-04-01T05:16:45.482Z,8.35
2023-04-01T05:19:14.486Z,8.51
2023-04-01T05:21:41.026Z,8.69
2023-04-01T05:24:10.927Z,8.76
2023-04-01T05:26:39.715Z,8.86
2023-04-01T05:29:11.067Z,8.85
2023-04-01T05:31:37.655Z,9.11
2023-04-01T05:34:04.221Z,9.18
2023-04-01T05:36:33.167Z,9.23
2023-04-01T05:39:02.033Z,9.24
2023-04-01T05:41:28.576Z,9.33
2023-04-01T05:43:55.353Z,9.29
2023-04-01T05:46:22.415Z,9.39
2023-04-01T05:48:49.034Z,9.36
2023-04-01T05:51:21.070Z,9.44
2023-04-01T05:53:47.922Z,9.46
2023-04-01T05:56:15.137Z,9.43
2023-04-01T05:58:41.763Z,9.61
2023-04-01T06:01:16.426Z,9.65
2023-04-01T06:03:43.590Z,9.67
2023-04-01T06:06:23.385Z,9.85
2023-04-01T06:08:52.641Z,9.90
2023-04-01T06:11:22.179Z,10.06
2023-04-01T06:13:54.651Z,9.96
2023-04-01T06:16:39.823Z,10.17
2023-04-01T06:19:29.268Z,10.17
2023-04-01T06:22:22.779Z,10.17
2023-04-01T06:24:54.649Z,10.16
2023-04-01T06:27:39.382Z,10.28
2023-04-01T06:30:11.862Z,10.48
2023-04-01T06:32:56.797Z,10.52
2023-04-01T06:35:53.673Z,10.61
2023-04-01T06:38:41.846Z,10.66
2023-04-01T06:41:45.315Z,10.71
2023-04-01T06:44:36.233Z,10.64
2023-04-01T06:47:33.846Z,10.58
2023-04-01T06:50:28.485Z,10.71
2023-04-01T06:53:32.728Z,10.85
2023-04-01T06:56:12.516Z,10.89
2023-04-01T06:58:46.192Z,10.97
2023-04-01T07:01:21.716Z,11.14
2023-04-01T07:03:59.278Z,11.27
2023-04-01T07:06:37.378Z,11.21
2023-04-01T07:09:14.169Z,11.15
2023-04-01T07:11:41.507Z,11.53
2023-04-01T07:17:07.757Z,11.63
2023-04-01T07:19:46.242Z,11.68
2023-04-01T07:22:33.186Z,11.68
2023-04-01T07:25:15.153Z,11.53
2023-04-01T07:27:45.633Z,11.61
2023-04-01T07:30:23.118Z,11.72
2023-04-01T07:33:28.344Z,11.62
2023-04-01T07:36:09.422Z,11.91
2023-04-01T07:39:07.213Z,12.18
2023-04-01T07:41:51.249Z,12.30
2023-04-01T07:44:25.659Z,12.12
2023-04-01T07:47:04.275Z,11.89
2023-04-01T07:50:01.760Z,11.86
2023-04-01T07:52:46.915Z,11.60
2023-04-01T07:55:47.665Z,11.95
2023-04-01T07:58:34.443Z,12.26
2023-04-01T08:01:15.721Z,12.30
2023-04-01T08:04:06.558Z,12.04
2023-04-01T08:06:54.518Z,11.86
2023-04-01T08:09:30.371Z,11.82
2023-04-01T08:11:59.346Z,11.83
2023-04-01T08:14:40.496Z,12.02
2023-04-01T08:17:19.157Z,12.09
2023-04-01T08:19:53.075Z,12.11
2023-04-01T08:22:36.921Z,12.18
2023-04-01T08:25:08.745Z,12.22
2023-04-01T08:27:40.974Z,12.20
2023-04-01T08:30:21.117Z,12.23
2023-04-01T08:33:01.676Z,12.17
2023-04-01T08:35:52.821Z,12.26
2023-04-01T08:38:30.065Z,12.12
2023-04-01T08:41:02.405Z,12.21
2023-04-01T08:43:42.806Z,11.88
2023-04-01T08:46:30.992Z,11.80
2023-04-01T08:49:17.765Z,11.81
2023-04-01T08:51:47.406Z,11.94
2023-04-01T08:54:41.323Z,12.03
2023-04-01T08:57:22.942Z,12.14
2023-04-01T09:00:09.556Z,12.12
2023-04-01T09:02:53.795Z,12.18
2023-04-01T09:05:48.254Z,12.13
2023-04-01T09:08:45.851Z,12.19
2023-04-01T09:11:54.506Z,12.24
2023-04-01T09:14:32.370Z,12.36
2023-04-01T09:17:36.505Z,12.55
2023-04-01T09:20:15.423Z,12.56
2023-04-01T09:23:20.050Z,12.54
2023-04-01T09:25:49.564Z,12.56
2023-04-01T09:28:34.366Z,12.51
2023-04-01T09:31:28.884Z,12.42
2023-04-01T09:33:55.537Z,12.19
2023-04-01T09:36:42.383Z,12.20
2023-04-01T09:39:24.142Z,12.17
2023-04-01T09:42:18.336Z,11.95
2023-04-01T09:45:00.204Z,12.10
2023-04-01T09:47:52.384Z,12.17
2023-04-01T09:50:54.740Z,12.32
2023-04-01T09:53:57.459Z,12.41
2023-04-01T09:57:01.720Z,12.17
2023-04-01T09:59:40.333Z,12.19
2023-04-01T10:02:43.319Z,12.40
2023-04-01T10:05:31.530Z,12.22
2023-04-01T10:08:16.928Z,12.52
2023-04-01T10:11:05.256Z,12.39
2023-04-01T10:13:47.050Z,12.43
2023-04-01T10:16:41.573Z,12.19
2023-04-01T10:19:40.259Z,12.14
2023-04-01T10:22:46.731Z,12.02
2023-04-01T10:25:28.240Z,12.19
2023-04-01T10:28:06.980Z,12.18
2023-04-01T10:31:00.795Z,12.17
2023-04-01T10:33:47.127Z,12.29
2023-04-01T10:36:47.713Z,12.36
2023-04-01T10:39:52.667Z,12.51
2023-04-01T10:42:57.222Z,12.60
2023-04-01T10:45:38.693Z,12.82
2023-04-01T10:48:35.167Z,12.94
2023-04-01T10:51:35.172Z,12.95
2023-04-01T10:54:15.265Z,13.03
2023-04-01T10:56:59.665Z,13.11
2023-04-01T10:59:35.859Z,13.09
2023-04-01T11:02:18.164Z,13.11
2023-04-01T11:05:15.677Z,13.16
2023-04-01T11:08:14.599Z,13.09
2023-04-01T11:11:19.468Z,13.11
2023-04-01T11:14:01.135Z,13.29
2023-04-01T11:16:46.185Z,13.33
2023-04-01T11:19:31.579Z,13.07
2023-04-01T11:22:10.551Z,13.15
2023-04-01T11:24:49.253Z,13.44
2023-04-01T11:27:56.950Z,13.52
2023-04-01T11:30:23.480Z,13.73
2023-04-01T11:33:21.035Z,13.68
2023-04-01T11:36:21.804Z,13.93
2023-04-01T11:39:07.026Z,13.63
2023-04-01T11:41:42.822Z,13.49
2023-04-01T11:44:25.403Z,13.14
2023-04-01T11:47:16.804Z,13.27
2023-04-01T11:49:48.586Z,12.98
2023-04-01T11:52:52.348Z,13.02
2023-04-01T11:55:24.866Z,12.96
2023-04-01T11:58:03.407Z,12.90
2023-04-01T12:00:52.885Z,12.97
2023-04-01T12:04:06.396Z,12.89
2023-04-01T12:06:47.424Z,12.95
2023-04-01T12:09:41.275Z,12.90
2023-04-01T12:12:26.446Z,13.01
2023-04-01T12:15:21.159Z,13.03
2023-04-01T12:18:27.406Z,13.05
2023-04-01T12:20:59.764Z,13.19
2023-04-01T12:23:32.387Z,13.37
2023-04-01T12:26:39.886Z,13.52
2023-04-01T12:29:39.810Z,13.62
2023-04-01T12:32:08.610Z,13.64
2023-04-01T12:35:05.743Z,13.54
2023-04-01T12:37:56.417Z,13.64
2023-04-01T12:40:29.622Z,13.63
2023-04-01T12:43:11.142Z,13.54
2023-04-01T12:46:14.353Z,13.74
2023-04-01T12:49:18.656Z,13.90
2023-04-01T12:52:00.051Z,13.88
2023-04-01T12:54:35.540Z,14.22
2023-04-01T12:57:34.816Z,14.58
2023-04-01T13:00:13.674Z,14.71
2023-04-01T13:02:52.531Z,14.62
2023-04-01T13:05:43.538Z,14.53
2023-04-01T13:08:24.265Z,14.72
2023-04-01T13:11:23.927Z,14.83
2023-04-01T13:14:30.874Z,14.93
2023-04-01T13:17:08.633Z,14.86
2023-04-01T13:20:13.017Z,14.98
2023-04-01T13:23:08.014Z,14.88
2023-04-01T13:25:47.005Z,14.88
2023-04-01T13:28:39.139Z,14.68
2023-04-01T13:31:24.253Z,14.75
2023-04-01T13:34:18.194Z,14.63
2023-04-01T13:36:47.711Z,14.39
2023-04-01T13:39:44.866Z,14.32
2023-04-01T13:42:26.014Z,14.29
2023-04-01T13:45:03.562Z,14.04
2023-04-01T13:47:36.150Z,13.95
2023-04-01T13:50:27.777Z,13.94
2023-04-01T13:53:06.439Z,13.82
2023-04-01T13:55:50.036Z,13.95
2023-04-01T13:58:38.323Z,13.73
2023-04-01T14:01:37.805Z,13.63
2023-04-01T14:04:26.005Z,13.51
2023-04-01T14:07:04.900Z,13.41
2023-04-01T14:09:34.183Z,13.18
2023-04-01T14:12:22.156Z,13.14
2023-04-01T14:14:54.362Z,12.73
2023-04-01T14:17:39.454Z,12.67
2023-04-01T14:20:12.165Z,12.76
2023-04-01T14:23:03.350Z,12.78
2023-04-01T14:25:57.863Z,12.90
2023-04-01T14:28:42.811Z,12.88
2023-04-01T14:31:46.587Z,12.96
2023-04-01T14:34:16.087Z,13.22
2023-04-01T14:36:54.262Z,13.30
2023-04-01T14:39:23.818Z,13.21
2023-04-01T14:42:27.413Z,13.44
2023-04-01T14:45:24.023Z,13.60
2023-04-01T14:48:13.623Z,13.65
2023-04-01T14:50:48.789Z,13.49
2023-04-01T14:53:21.291Z,13.76
2023-04-01T14:55:54.917Z,13.95
2023-04-01T14:58:26.305Z,14.11
2023-04-01T15:01:05.791Z,14.04
2023-04-01T15:03:42.004Z,14.13
2023-04-01T15:06:26.665Z,13.94
2023-04-01T15:09:12.371Z,13.91
2023-04-01T15:12:05.457Z,13.86
2023-04-01T15:14:49.372Z,13.94
2023-04-01T15:17:16.052Z,14.04
2023-04-01T15:20:21.721Z,14.14
2023-04-01T15:23:14.980Z,14.02
2023-04-01T15:26:03.501Z,14.16
2023-04-01T15:28:39.404Z,14.27
2023-04-01T15:31:28.422Z,14.14
2023-04-01T15:34:54.613Z,14.29
2023-04-01T15:37:53.469Z,14.37
2023-04-01T15:40:29.019Z,14.34
2023-04-01T15:43:32.230Z,14.26
2023-04-01T15:46:21.184Z,14.26
2023-04-01T15:49:15.550Z,14.16
2023-04-01T15:51:57.541Z,14.18
2023-04-01T15:54:39.308Z,14.08
2023-04-01T15:57:46.840Z,14.16
2023-04-01T16:00:31.316Z,13.95
2023-04-01T16:03:22.980Z,14.01
2023-04-01T16:05:54.834Z,14.02
2023-04-01T16:08:39.959Z,14.02
2023-04-01T16:11:17.921Z,14.03
2023-04-01T16:13:53.988Z,14.11
2023-04-01T16:16:32.634Z,14.11
2023-04-01T16:19:14.283Z,14.16
2023-04-01T16:22:00.451Z,14.05
2023-04-01T16:24:46.707Z,14.09
2023-04-01T16:27:21.435Z,13.90
2023-04-01T16:29:53.415Z,14.05
2023-04-01T16:32:30.168Z,14.04
2023-04-01T16:35:24.039Z,14.01
2023-04-01T16:38:07.822Z,13.85
2023-04-01T16:40:48.152Z,13.75
2023-04-01T16:43:28.022Z,13.64
2023-04-01T16:46:13.232Z,13.75
2023-04-01T16:49:04.148Z,13.60
2023-04-01T16:51:45.820Z,13.62
2023-04-01T16:54:31.302Z,13.48
2023-04-01T16:57:17.133Z,13.41
2023-04-01T16:59:56.227Z,13.43
2023-04-01T17:02:53.763Z,13.42
2023-04-01T17:05:38.231Z,13.49
2023-04-01T17:08:49.005Z,13.21
2023-04-01T17:11:52.803Z,13.43
2023-04-01T17:14:28.508Z,13.41
2023-04-01T17:17:11.333Z,13.46
2023-04-01T17:20:03.414Z,13.55
2023-04-01T17:22:34.405Z,13.38
2023-04-01T17:25:09.346Z,13.33
2023-04-01T17:27:41.774Z,13.29
2023-04-01T17:30:24.683Z,13.11
2023-04-01T17:33:08.662Z,13.02
2023-04-01T17:36:03.063Z,12.85
2023-04-01T17:38:50.788Z,12.77
2023-04-01T17:41:42.073Z,12.87
2023-04-01T17:44:20.808Z,12.89
2023-04-01T17:47:12.545Z,12.71
2023-04-01T17:49:54.413Z,12.80
2023-04-01T17:52:31.940Z,12.85
2023-04-01T17:55:32.583Z,12.91
2023-04-01T17:58:18.826Z,12.80
2023-04-01T18:01:03.496Z,12.62
2023-04-01T18:03:48.164Z,12.67
2023-04-01T18:07:05.637Z,12.43
2023-04-01T18:09:40.501Z,12.32
2023-04-01T18:12:34.842Z,12.32
2023-04-01T18:15:19.452Z,12.23
2023-04-01T18:18:11.671Z,12.29
2023-04-01T18:20:56.988Z,12.16
2023-04-01T18:23:44.588Z,12.22
2023-04-01T18:26:35.728Z,12.23
2023-04-01T18:29:23.333Z,12.18
2023-04-01T18:31:56.255Z,12.18
2023-04-01T18:34:31.866Z,12.09
2023-04-01T18:37:15.975Z,12.09
2023-04-01T18:39:56.787Z,12.18
2023-04-01T18:42:23.341Z,12.32
2023-04-01T18:44:52.916Z,12.43
2023-04-01T18:47:52.414Z,12.40
2023-04-01T18:50:37.607Z,12.33
2023-04-01T18:53:10.202Z,12.31
2023-04-01T18:55:58.650Z,12.49
2023-04-01T18:58:25.192Z,12.17
2023-04-01T19:01:29.264Z,12.33
2023-04-01T19:04:17.746Z,12.12
2023-04-01T19:06:52.795Z,12.11
2023-04-01T19:09:22.464Z,12.31
2023-04-01T19:11:58.175Z,12.27
2023-04-01T19:14:52.279Z,12.09
2023-04-01T19:17:26.344Z,12.12
2023-04-01T19:20:08.074Z,12.06
2023-04-01T19:22:40.329Z,11.95
2023-04-01T19:25:25.928Z,12.22
2023-04-01T19:28:15.712Z,12.28
2023-04-01T19:31:09.729Z,12.31
2023-04-01T19:33:41.673Z,12.38
2023-04-01T19:36:17.527Z,12.36
2023-04-01T19:39:12.099Z,12.25
2023-04-01T19:41:41.731Z,12.11
2023-04-01T19:44:17.388Z,12.05
2023-04-01T19:46:56.633Z,12.02
2023-04-01T19:49:44.727Z,11.90
2023-04-01T19:52:20.573Z,11.71
2023-04-01T19:55:08.616Z,11.62
2023-04-01T19:57:43.643Z,11.46
2023-04-01T20:00:32.672Z,11.41
2023-04-01T20:03:16.928Z,11.29
2023-04-01T20:05:52.647Z,11.14
2023-04-01T20:08:44.182Z,10.91
2023-04-01T20:11:45.877Z,10.97
2023-04-01T20:14:31.099Z,10.84
2023-04-01T20:17:18.637Z,10.86
2023-04-01T20:20:09.420Z,10.52
2023-04-01T20:22:44.877Z,10.68
2023-04-01T20:25:23.167Z,10.71
2023-04-01T20:27:58.366Z,10.76
2023-04-01T20:30:37.786Z,10.66
2023-04-01T20:33:13.056Z,10.68
2023-04-01T20:36:10.362Z,10.77
2023-04-01T20:39:25.313Z,10.78
2023-04-01T20:42:16.093Z,10.71
2023-04-01T20:44:47.773Z,10.65
2023-04-01T20:47:36.442Z,10.65
2023-04-01T20:50:31.844Z,10.57
2023-04-01T20:53:11.139Z,10.48
2023-04-01T20:55:56.672Z,10.58
2023-04-01T20:58:53.630Z,10.75
2023-04-01T21:01:28.648Z,10.58
2023-04-01T21:04:23.746Z,10.19
2023-04-01T21:07:09.632Z,10.16
2023-04-01T21:09:38.485Z,9.97
2023-04-01T21:12:44.340Z,10.12
2023-04-01T21:15:39.272Z,10.18
2023-04-01T21:18:37.482Z,10.35
2023-04-01T21:21:25.202Z,10.36
2023-04-01T21:24:01.132Z,10.42
2023-04-01T21:27:09.645Z,10.43
2023-04-01T21:30:14.757Z,10.25
2023-04-01T21:32:50.440Z,10.36
2023-04-01T21:35:29.247Z,10.39
2023-04-01T21:38:07.806Z,10.52
2023-04-01T21:40:57.374Z,10.41
2023-04-01T21:43:35.084Z,10.41
2023-04-01T21:46:25.782Z,10.46
2023-04-01T21:49:00.559Z,10.44
2023-04-01T21:51:46.016Z,10.47
2023-04-01T21:54:52.128Z,10.64
2023-04-01T21:57:37.363Z,10.68
2023-04-01T22:00:28.737Z,10.73
2023-04-01T22:03:26.184Z,10.62
2023-04-01T22:06:18.592Z,10.73
2023-04-01T22:09:32.794Z,10.68
2023-04-01T22:12:24.056Z,10.58
2023-04-01T22:15:18.388Z,10.74
2023-04-01T22:18:04.310Z,10.64
2023-04-01T22:21:06.064Z,10.62
2023-04-01T22:23:41.722Z,10.67
2023-04-01T22:26:46.556Z,10.50
2023-04-01T22:29:16.675Z,10.61
2023-04-01T22:32:04.355Z,10.61
2023-04-01T22:34:48.686Z,10.44
2023-04-01T22:37:33.269Z,10.47
2023-04-01T22:40:09.718Z,10.56
2023-04-01T22:42:44.374Z,10.51
2023-04-01T22:45:13.883Z,10.42
2023-04-01T22:48:02.964Z,10.53
2023-04-01T22:50:47.454Z,10.32
2023-04-01T22:53:46.702Z,10.20
2023-04-01T22:56:23.110Z,10.20
2023-04-01T22:59:12.848Z,10.32
2023-04-01T23:01:53.048Z,10.31
2023-04-01T23:04:25.542Z,10.35
2023-04-01T23:07:01.630Z,10.42
2023-04-01T23:09:35.374Z,10.33
2023-04-01T23:12:15.443Z,10.20
2023-04-01T23:14:57.161Z,10.03
2023-04-01T23:17:42.675Z,10.08
2023-04-01T23:20:27.652Z,10.00
2023-04-01T23:23:07.594Z,10.06
2023-04-01T23:25:40.947Z,9.89
2023-04-01T23:28:17.174Z,9.69
2023-04-01T23:30:43.750Z,9.74
2023-04-01T23:33:21.613Z,9.51
2023-04-01T23:35:48.383Z,9.49
2023-04-01T23:38:18.202Z,9.42
2023-04-01T23:40:47.598Z,9.50
2023-04-01T23:43:29.494Z,9.52
2023-04-01T23:45:57.206Z,9.44
2023-04-01T23:48:45.438Z,9.51
2023-04-01T23:51:23.286Z,9.32
2023-04-01T23:53:59.950Z,9.05
2023-04-01T23:56:35.839Z,9.22
2023-04-01T23:59:04.142Z,9.25
